Ames, New York
Current Conditions -  °F | °C
As of 6:35 PM on Friday 31 Oct 2014 (Local Time) from KNY0 Reporting Station
Broken Clouds Broken Clouds  
Wind Chill: 42°   Ceiling: 4300
Heat Index: 42°   Visibility: 10mi
Dew Point: 31°   Wind: 3mph
Humidity: 63%   Direction: 70°ENE
Pressure: 29.96"   Gusts: NA
Location:  42.8548°N, 74.5942°W
Report Text: KNY0 312235Z AUTO 07003KT 10SM BKN043 06/M01 A2996 RMK AO2 T00581008
Loading
Personal Weather Stations






























Interactive Weather Map
Tropical Storm Tracking
New forecast layout! Learn more

10-Day Weather Forecast

Advertisements
Track Severe Weather on mobile